Time;durP1;ratioP1;P1;durP2;ratioP2;P2;SDS_P1;SDS_P2;PMS_P1;PMS_P2;Temp;Humidity;BMP_temperature;BMP_pressure;BME280_temperature;BME280_humidity;BME280_pressure;Samples;Min_cycle;Max_cycle;Signal;HPM_P1;HPM_P2
2022/09/02 00:01:53;;;;;;;2.43;2.30;;;14.80;1.00;;;;;;6242475;28;20242;-55
2022/09/02 00:04:56;;;;;;;2.13;2.03;;;14.80;1.00;;;;;;6243957;28;20253;-55
2022/09/02 00:07:59;;;;;;;2.27;2.27;;;14.80;1.00;;;;;;6248639;28;20284;-55
2022/09/02 00:11:05;;;;;;;2.00;2.00;;;14.80;1.00;;;;;;6241150;28;20227;-54
2022/09/02 00:14:12;;;;;;;2.07;2.07;;;14.80;1.00;;;;;;6242846;28;20356;-55
2022/09/02 00:17:15;;;;;;;3.60;2.30;;;14.70;1.00;;;;;;6239761;28;20234;-54
2022/09/02 00:20:18;;;;;;;2.50;2.30;;;14.80;1.00;;;;;;6238738;28;20241;-55
2022/09/02 00:23:22;;;;;;;2.40;2.20;;;14.80;1.00;;;;;;6242174;28;20380;-54
2022/09/02 00:26:29;;;;;;;3.70;2.40;;;14.80;1.00;;;;;;6247262;28;20840;-55
2022/09/02 00:29:33;;;;;;;3.20;2.20;;;14.80;1.00;;;;;;6244762;28;20766;-55
2022/09/02 00:32:36;;;;;;;2.50;2.40;;;14.80;1.00;;;;;;6246935;28;20222;-55
2022/09/02 00:35:39;;;;;;;2.37;2.37;;;14.80;1.00;;;;;;6246897;28;20258;-55
2022/09/02 00:38:42;;;;;;;2.40;2.30;;;14.90;1.00;;;;;;6248728;28;20387;-55
2022/09/02 00:41:45;;;;;;;2.50;2.40;;;14.90;1.00;;;;;;6247103;28;20735;-54
2022/09/02 00:44:50;;;;;;;2.20;2.20;;;14.90;1.00;;;;;;6240973;28;20381;-56
2022/09/02 00:47:53;;;;;;;3.40;2.30;;;14.90;1.00;;;;;;6241124;28;20731;-54
2022/09/02 00:50:56;;;;;;;2.43;2.30;;;14.90;1.00;;;;;;6241277;28;20240;-54
2022/09/02 00:53:59;;;;;;;2.23;2.17;;;14.90;1.00;;;;;;6236982;28;20826;-55
2022/09/02 00:57:06;;;;;;;2.13;2.13;;;15.00;1.00;;;;;;6241537;28;20235;-55
2022/09/02 01:00:16;;;;;;;2.53;2.37;;;15.00;1.00;;;;;;6239474;28;20236;-55
2022/09/02 01:03:21;;;;;;;2.60;2.40;;;15.00;1.00;;;;;;6246399;28;20906;-55
2022/09/02 01:06:29;;;;;;;2.57;2.47;;;15.00;1.00;;;;;;6244014;28;20245;-55
2022/09/02 01:09:32;;;;;;;2.57;2.37;;;15.00;1.00;;;;;;6246214;28;20238;-54
2022/09/02 01:12:37;;;;;;;2.50;2.40;;;15.00;1.00;;;;;;6243666;28;20724;-55
2022/09/02 01:16:02;;;;;;;2.53;2.43;;;15.00;1.00;;;;;;6248123;28;20263;-55
2022/09/02 01:19:11;;;;;;;2.20;2.20;;;15.00;1.00;;;;;;6225244;28;20819;-50
2022/09/02 01:22:20;;;;;;;2.67;2.03;;;15.00;1.00;;;;;;6244145;28;20234;-53
2022/09/02 01:25:27;;;;;;;2.37;2.37;;;14.90;1.00;;;;;;6248904;28;20230;-56
2022/09/02 01:28:39;;;;;;;2.40;2.40;;;14.90;1.00;;;;;;6248510;28;20354;-54
2022/09/02 01:31:45;;;;;;;2.00;2.00;;;15.00;1.00;;;;;;6247437;28;20726;-55
2022/09/02 01:34:48;;;;;;;2.17;2.17;;;15.00;1.00;;;;;;6243578;28;20258;-55
2022/09/02 01:37:55;;;;;;;2.20;2.10;;;15.00;1.00;;;;;;6241396;28;20326;-56
2022/09/02 01:40:58;;;;;;;2.20;2.20;;;15.00;1.00;;;;;;6241725;28;20391;-54
2022/09/02 01:44:10;;;;;;;2.43;2.40;;;15.00;1.00;;;;;;6247414;28;20318;-55
2022/09/02 01:47:14;;;;;;;2.53;2.20;;;14.90;1.00;;;;;;6248875;28;20326;-56
2022/09/02 01:50:18;;;;;;;2.17;2.10;;;14.90;1.00;;;;;;6247304;28;20348;-55
2022/09/02 01:53:23;;;;;;;2.17;2.17;;;14.90;1.00;;;;;;6243324;28;20306;-54
2022/09/02 01:56:26;;;;;;;2.30;2.30;;;14.90;1.00;;;;;;6242532;28;20240;-54
2022/09/02 01:59:29;;;;;;;5.40;2.43;;;14.90;1.00;;;;;;6241970;28;20233;-55
2022/09/02 02:02:32;;;;;;;2.33;2.23;;;14.90;1.00;;;;;;6238779;28;20248;-54
2022/09/02 02:05:35;;;;;;;3.70;2.63;;;14.90;1.00;;;;;;6239918;28;20642;-55
2022/09/02 02:08:40;;;;;;;2.40;2.40;;;14.90;1.00;;;;;;6247323;28;20261;-55
2022/09/02 02:11:43;;;;;;;2.20;2.20;;;14.90;1.00;;;;;;6240921;28;20284;-54
2022/09/02 02:14:54;;;;;;;2.60;2.43;;;14.90;1.00;;;;;;6236024;28;20231;-54
2022/09/02 02:17:57;;;;;;;2.57;2.47;;;14.90;1.00;;;;;;6238922;28;20312;-56
2022/09/02 02:21:01;;;;;;;2.63;2.63;;;14.80;1.00;;;;;;6239796;28;20257;-56
2022/09/02 02:24:06;;;;;;;2.50;2.40;;;14.80;1.00;;;;;;6241324;28;20820;-55
2022/09/02 02:27:10;;;;;;;2.20;2.20;;;14.80;1.00;;;;;;6247373;28;20637;-53
2022/09/02 02:30:16;;;;;;;2.33;2.20;;;14.80;1.00;;;;;;6245078;28;20246;-55
2022/09/02 02:33:19;;;;;;;2.70;2.67;;;14.80;1.00;;;;;;6243805;28;20883;-55
2022/09/02 02:36:28;;;;;;;2.93;2.70;;;14.70;1.00;;;;;;6243832;28;20226;-55
2022/09/02 02:39:32;;;;;;;2.23;2.23;;;14.70;1.00;;;;;;6225116;28;20832;-52
2022/09/02 02:42:37;;;;;;;2.50;2.40;;;14.70;1.00;;;;;;6241786;28;20726;-55
2022/09/02 02:45:40;;;;;;;2.47;2.37;;;14.60;1.00;;;;;;6243960;28;20234;-55
2022/09/02 02:48:43;;;;;;;2.20;2.20;;;14.60;1.00;;;;;;6240218;28;20329;-54
2022/09/02 02:51:45;;;;;;;2.53;2.43;;;14.50;1.00;;;;;;6248090;28;20326;-55
2022/09/02 02:54:50;;;;;;;2.33;2.33;;;14.50;1.00;;;;;;6242028;28;20235;-57
2022/09/02 02:57:53;;;;;;;2.50;2.40;;;14.50;1.00;;;;;;6241169;28;20368;-55
2022/09/02 03:00:56;;;;;;;2.23;2.23;;;14.40;1.00;;;;;;6233273;28;20413;-55
2022/09/02 03:03:59;;;;;;;2.40;2.40;;;14.40;1.00;;;;;;6243576;28;20241;-55
2022/09/02 03:07:04;;;;;;;2.30;2.30;;;14.40;1.00;;;;;;6237722;28;20242;-55
2022/09/02 03:10:11;;;;;;;2.90;2.80;;;14.30;1.00;;;;;;6234217;28;20235;-53
2022/09/02 03:13:15;;;;;;;2.80;2.67;;;14.30;1.00;;;;;;6237255;28;20674;-54
2022/09/02 03:16:18;;;;;;;2.20;2.17;;;14.20;1.00;;;;;;6243830;28;20233;-55
2022/09/02 03:19:21;;;;;;;2.83;2.80;;;14.20;1.00;;;;;;6240127;28;20226;-55
2022/09/02 03:22:24;;;;;;;2.80;2.60;;;14.20;1.00;;;;;;6240143;28;20318;-54
2022/09/02 03:25:30;;;;;;;2.60;2.40;;;14.20;1.00;;;;;;6240978;28;20312;-55
2022/09/02 03:28:37;;;;;;;3.60;2.50;;;14.10;1.00;;;;;;6243675;28;20238;-54
2022/09/02 03:31:40;;;;;;;2.67;2.47;;;14.00;1.00;;;;;;6232711;28;20320;-58
2022/09/02 03:34:43;;;;;;;2.60;2.50;;;14.00;1.00;;;;;;6241841;28;20586;-53
2022/09/02 03:37:47;;;;;;;2.80;2.60;;;14.00;1.00;;;;;;6242462;28;20235;-55
2022/09/02 03:40:51;;;;;;;2.80;2.70;;;14.00;1.00;;;;;;6239421;28;20235;-55
2022/09/02 03:43:56;;;;;;;2.80;2.73;;;13.90;1.00;;;;;;6239335;28;20801;-55
2022/09/02 03:46:59;;;;;;;2.87;2.77;;;13.90;1.00;;;;;;6244553;28;20234;-55
2022/09/02 03:50:03;;;;;;;3.00;2.80;;;13.80;1.00;;;;;;6243885;28;20429;-54
2022/09/02 03:53:07;;;;;;;2.80;2.70;;;13.80;1.00;;;;;;6244958;28;20231;-55
2022/09/02 03:56:14;;;;;;;2.60;2.53;;;13.80;1.00;;;;;;6241708;28;20975;-55
2022/09/02 03:59:17;;;;;;;2.90;2.80;;;13.80;1.00;;;;;;6244850;28;20254;-54
2022/09/02 04:02:20;;;;;;;3.07;2.97;;;13.70;1.00;;;;;;6247730;28;20376;-53
2022/09/02 04:05:24;;;;;;;3.13;2.90;;;13.70;1.00;;;;;;6249670;28;20606;-56
2022/09/02 04:08:27;;;;;;;3.03;2.93;;;13.70;1.00;;;;;;6250511;28;20312;-55
2022/09/02 04:11:32;;;;;;;3.00;2.90;;;13.70;1.00;;;;;;6249296;28;20751;-55
2022/09/02 04:14:35;;;;;;;2.97;2.80;;;13.60;1.00;;;;;;6235152;28;20845;-54
2022/09/02 04:17:39;;;;;;;3.27;3.00;;;13.60;1.00;;;;;;6244919;28;20317;-55
2022/09/02 04:20:43;;;;;;;2.83;2.73;;;13.70;1.00;;;;;;6250611;28;20437;-55
2022/09/02 04:23:52;;;;;;;2.60;2.60;;;13.60;1.00;;;;;;6247705;28;20480;-55
2022/09/02 04:26:56;;;;;;;2.80;2.70;;;13.60;1.00;;;;;;6248369;28;20844;-56
2022/09/02 04:30:07;;;;;;;2.57;2.47;;;13.70;1.00;;;;;;6253938;28;20781;-54
2022/09/02 04:33:10;;;;;;;3.50;3.13;;;13.60;1.00;;;;;;6249169;28;20532;-56
2022/09/02 04:36:15;;;;;;;3.00;3.00;;;13.70;1.00;;;;;;6256274;28;20325;-56
2022/09/02 04:39:19;;;;;;;3.23;3.07;;;13.70;1.00;;;;;;6243271;28;20906;-55
2022/09/02 04:42:24;;;;;;;3.10;3.00;;;13.70;1.00;;;;;;6255398;28;20236;-55
2022/09/02 04:45:27;;;;;;;3.03;2.93;;;13.70;1.00;;;;;;6253986;28;20261;-55
2022/09/02 04:48:32;;;;;;;3.17;2.97;;;13.80;1.00;;;;;;6225266;28;20372;-55
2022/09/02 04:51:41;;;;;;;2.90;2.80;;;13.80;1.00;;;;;;6254804;28;20333;-56
2022/09/02 04:54:44;;;;;;;3.20;3.00;;;13.80;1.00;;;;;;6258288;28;20388;-56
2022/09/02 04:57:51;;;;;;;3.23;3.03;;;13.80;1.00;;;;;;6255304;28;20321;-55
2022/09/02 05:00:54;;;;;;;3.07;2.87;;;13.80;1.00;;;;;;6245799;28;20262;-54
2022/09/02 05:03:58;;;;;;;3.20;3.03;;;13.80;1.00;;;;;;6256346;28;20454;-54
2022/09/02 05:07:01;;;;;;;5.20;3.03;;;13.80;1.00;;;;;;6253805;28;20260;-56
2022/09/02 05:10:06;;;;;;;3.07;2.80;;;13.80;1.00;;;;;;6247252;28;20316;-56
2022/09/02 05:13:11;;;;;;;2.90;2.80;;;13.80;1.00;;;;;;6256679;28;20265;-55
2022/09/02 05:16:15;;;;;;;3.10;3.00;;;13.80;1.00;;;;;;6247029;28;20922;-55
2022/09/02 05:19:18;;;;;;;4.73;3.10;;;13.80;1.00;;;;;;6236998;28;20520;-55
2022/09/02 05:22:21;;;;;;;5.83;3.30;;;13.90;1.00;;;;;;6241290;28;20318;-54
2022/09/02 05:25:24;;;;;;;3.60;3.30;;;13.90;1.00;;;;;;6240936;28;20331;-55
2022/09/02 05:28:28;;;;;;;3.13;2.73;;;14.00;1.00;;;;;;6251431;28;20368;-54
2022/09/02 05:31:31;;;;;;;4.87;3.47;;;14.00;1.00;;;;;;6243818;28;20328;-56
2022/09/02 05:34:34;;;;;;;3.27;3.17;;;14.10;1.00;;;;;;6252447;28;20593;-60
2022/09/02 05:37:37;;;;;;;3.10;3.10;;;14.20;1.00;;;;;;6239670;28;20257;-52
2022/09/02 05:40:40;;;;;;;3.17;3.03;;;14.20;1.00;;;;;;6247002;28;20343;-57
2022/09/02 05:43:45;;;;;;;2.90;2.80;;;14.30;1.00;;;;;;6246308;28;20242;-56
2022/09/02 05:46:49;;;;;;;3.83;3.17;;;14.30;1.00;;;;;;6241976;28;20322;-55
2022/09/02 05:49:54;;;;;;;2.77;2.67;;;14.40;1.00;;;;;;6245148;28;20415;-55
2022/09/02 05:52:56;;;;;;;3.10;2.90;;;14.40;1.00;;;;;;6247001;28;20231;-55
2022/09/02 05:56:04;;;;;;;3.27;3.07;;;14.40;1.00;;;;;;6249053;28;20258;-55
2022/09/02 05:59:09;;;;;;;3.10;2.73;;;14.40;1.00;;;;;;6242951;28;20239;-55
2022/09/02 06:02:13;;;;;;;2.77;2.67;;;14.50;1.00;;;;;;6244193;28;20256;-57
2022/09/02 06:05:17;;;;;;;3.63;3.27;;;14.50;1.00;;;;;;6243461;28;20238;-56
2022/09/02 06:08:20;;;;;;;3.30;3.20;;;14.50;1.00;;;;;;6244205;28;20490;-55
2022/09/02 06:11:24;;;;;;;6.53;3.03;;;14.60;1.00;;;;;;6243952;28;20245;-55
2022/09/02 06:14:29;;;;;;;3.30;3.00;;;14.60;1.00;;;;;;6251491;28;20342;-55
2022/09/02 06:17:32;;;;;;;3.27;3.07;;;14.80;1.00;;;;;;6240488;28;20234;-55
2022/09/02 06:20:39;;;;;;;3.50;3.30;;;14.90;1.00;;;;;;6241713;28;20272;-55
2022/09/02 06:23:43;;;;;;;5.90;3.80;;;15.00;1.00;;;;;;6248650;28;20614;-55
2022/09/02 06:26:52;;;;;;;5.90;3.63;;;15.20;1.00;;;;;;6247333;28;20369;-56
2022/09/02 06:29:58;;;;;;;3.30;3.10;;;15.20;1.00;;;;;;6250284;28;20522;-56
2022/09/02 06:33:02;;;;;;;3.73;3.53;;;15.30;1.00;;;;;;6249962;28;20234;-55
2022/09/02 06:36:07;;;;;;;4.07;3.43;;;15.40;1.00;;;;;;6247853;28;20248;-55
2022/09/02 06:39:12;;;;;;;3.50;3.30;;;15.40;1.00;;;;;;6246555;28;20329;-55
2022/09/02 06:42:15;;;;;;;3.70;3.40;;;15.50;1.00;;;;;;6243794;28;20284;-55
2022/09/02 06:45:23;;;;;;;6.10;3.50;;;15.60;1.00;;;;;;6251633;28;20673;-55
2022/09/02 06:48:25;;;;;;;3.73;3.40;;;15.80;1.00;;;;;;6238068;28;20408;-51
2022/09/02 06:51:31;;;;;;;3.90;3.60;;;15.90;1.00;;;;;;6239740;28;20938;-55
2022/09/02 06:54:34;;;;;;;3.50;3.40;;;16.00;1.00;;;;;;6239498;28;20253;-54
2022/09/02 06:57:37;;;;;;;3.43;3.27;;;16.20;1.00;;;;;;6247701;28;20710;-55
2022/09/02 07:00:43;;;;;;;3.67;3.37;;;16.20;1.00;;;;;;6246346;28;20354;-55
2022/09/02 07:07:28;;;;;;;3.30;3.20;;;16.30;1.00;;;;;;6253431;28;20238;-57
2022/09/02 07:10:32;;;;;;;3.77;3.50;;;16.40;1.00;;;;;;6253197;28;20431;-56
2022/09/02 07:13:36;;;;;;;3.93;3.50;;;16.50;1.00;;;;;;6257711;28;20379;-55
2022/09/02 07:16:44;;;;;;;4.20;3.40;;;16.60;1.00;;;;;;6249274;28;20250;-54
2022/09/02 07:19:47;;;;;;;5.60;3.20;;;16.60;1.00;;;;;;6250464;28;20727;-54
2022/09/02 07:22:50;;;;;;;2.80;2.70;;;16.70;1.00;;;;;;6253987;28;20738;-52
2022/09/02 07:25:58;;;;;;;4.67;2.90;;;16.80;1.00;;;;;;6253954;28;20230;-53
2022/09/02 07:29:01;;;;;;;4.67;2.97;;;16.80;1.00;;;;;;6254874;28;20361;-55
2022/09/02 07:32:05;;;;;;;3.40;3.10;;;16.90;1.00;;;;;;6251253;28;20667;-55
2022/09/02 07:35:09;;;;;;;2.67;2.60;;;17.00;1.00;;;;;;6256045;28;20374;-55
2022/09/02 07:38:13;;;;;;;3.30;2.83;;;17.10;1.00;;;;;;6257520;28;20225;-54
2022/09/02 07:41:16;;;;;;;3.77;3.00;;;17.10;1.00;;;;;;6248286;28;20343;-57
2022/09/02 07:44:22;;;;;;;5.97;3.07;;;17.30;1.00;;;;;;6250885;28;20441;-55
2022/09/02 07:47:26;;;;;;;3.03;2.90;;;17.30;1.00;;;;;;6247385;28;20633;-55
2022/09/02 07:50:29;;;;;;;2.90;2.70;;;17.40;1.00;;;;;;6254260;28;20246;-55
2022/09/02 07:53:33;;;;;;;3.13;2.93;;;17.60;1.00;;;;;;6255282;28;20846;-55
2022/09/02 07:56:37;;;;;;;3.30;2.80;;;17.70;1.00;;;;;;6257485;28;20549;-55
2022/09/02 07:59:39;;;;;;;4.13;2.93;;;17.90;1.00;;;;;;6251074;28;20772;-55
2022/09/02 08:02:44;;;;;;;3.00;2.80;;;18.00;1.00;;;;;;6252610;28;20317;-55
2022/09/02 08:05:47;;;;;;;3.20;2.90;;;18.10;1.00;;;;;;6258795;28;20230;-55
2022/09/02 08:08:50;;;;;;;3.33;3.20;;;18.20;1.00;;;;;;6255300;28;20338;-55
2022/09/02 08:11:53;;;;;;;2.97;2.40;;;18.30;1.00;;;;;;6256713;28;20324;-55
2022/09/02 08:14:57;;;;;;;2.73;2.43;;;18.40;1.00;;;;;;6244243;28;20286;-56
2022/09/02 08:18:03;;;;;;;2.33;2.30;;;18.40;1.00;;;;;;6257097;28;20321;-54
2022/09/02 08:21:06;;;;;;;3.03;2.57;;;18.50;1.00;;;;;;6255628;28;20244;-54
2022/09/02 08:24:09;;;;;;;2.67;2.57;;;18.60;1.00;;;;;;6253319;28;20271;-56
2022/09/02 08:27:13;;;;;;;2.30;2.30;;;18.70;1.00;;;;;;6254590;28;20719;-54
2022/09/02 08:30:24;;;;;;;6.03;2.40;;;18.80;1.00;;;;;;6246754;28;20238;-54
2022/09/02 08:33:28;;;;;;;2.50;2.50;;;18.90;1.00;;;;;;6257019;28;20303;-55
2022/09/02 08:36:31;;;;;;;2.53;2.40;;;18.90;1.00;;;;;;6257742;28;20317;-54
2022/09/02 08:39:35;;;;;;;2.20;2.20;;;19.00;1.00;;;;;;6248567;28;20670;-54
2022/09/02 08:42:43;;;;;;;2.30;2.20;;;19.10;1.00;;;;;;6244290;28;20363;-55
2022/09/02 08:45:49;;;;;;;3.93;2.40;;;19.20;1.00;;;;;;6248102;28;20249;-54
2022/09/02 08:48:58;;;;;;;2.17;2.07;;;19.20;1.00;;;;;;6247832;28;20246;-54
2022/09/02 08:52:03;;;;;;;2.20;2.10;;;19.30;1.00;;;;;;6252025;28;20328;-54
2022/09/02 08:55:10;;;;;;;2.43;2.20;;;19.40;1.00;;;;;;6254107;28;20316;-56
2022/09/02 08:58:18;;;;;;;2.30;2.10;;;19.50;1.00;;;;;;6257195;28;20234;-55
2022/09/02 09:01:30;;;;;;;5.17;2.10;;;19.60;1.00;;;;;;6252409;28;20722;-55
2022/09/02 09:04:52;;;;;;;2.87;2.20;;;19.70;1.00;;;;;;6256907;28;20352;-54
2022/09/02 09:08:05;;;;;;;2.17;2.00;;;19.80;1.00;;;;;;6254718;28;20354;-53
2022/09/02 09:11:23;;;;;;;2.70;2.10;;;19.90;1.00;;;;;;6254775;28;20713;-56
2022/09/02 09:14:33;;;;;;;2.10;2.10;;;19.90;1.00;;;;;;6236004;28;20336;-55
2022/09/02 09:17:43;;;;;;;1.73;1.63;;;19.90;1.00;;;;;;6253292;28;20572;-55
2022/09/02 09:20:48;;;;;;;1.90;1.80;;;20.00;1.00;;;;;;6250209;28;20645;-54
2022/09/02 09:23:55;;;;;;;1.50;1.50;;;20.20;1.00;;;;;;6253236;28;20707;-54
2022/09/02 09:26:58;;;;;;;1.70;1.60;;;20.20;1.00;;;;;;6256036;28;20307;-54
2022/09/02 09:30:02;;;;;;;1.40;1.40;;;20.30;1.00;;;;;;6251874;28;20242;-56
2022/09/02 09:33:05;;;;;;;1.40;1.40;;;20.40;1.00;;;;;;6244272;28;20379;-55
2022/09/02 09:36:10;;;;;;;1.70;1.70;;;20.50;1.00;;;;;;6242734;28;20346;-55
2022/09/02 09:39:24;;;;;;;1.63;1.63;;;20.60;1.00;;;;;;6241200;28;20325;-56
2022/09/02 09:42:33;;;;;;;1.80;1.70;;;20.70;1.00;;;;;;6243103;28;20320;-55
2022/09/02 09:45:38;;;;;;;2.00;1.90;;;20.80;1.00;;;;;;6243322;28;20695;-54
2022/09/02 09:48:50;;;;;;;6.60;2.00;;;20.90;1.00;;;;;;6243797;28;20469;-54
2022/09/02 09:51:56;;;;;;;1.70;1.60;;;21.00;1.00;;;;;;6243211;28;20339;-54
2022/09/02 09:55:12;;;;;;;1.83;1.73;;;21.00;1.00;;;;;;6240496;28;20265;-54
2022/09/02 09:58:15;;;;;;;1.40;1.30;;;21.10;1.00;;;;;;6239475;28;20405;-54
2022/09/02 10:01:21;;;;;;;2.50;1.83;;;21.00;1.00;;;;;;6246546;28;21010;-54
2022/09/02 10:04:28;;;;;;;2.20;1.50;;;21.20;1.00;;;;;;6247708;28;20234;-56
2022/09/02 10:07:57;;;;;;;1.93;1.80;;;21.30;1.00;;;;;;6244910;28;20254;-54
2022/09/02 10:11:02;;;;;;;1.70;1.60;;;21.30;1.00;;;;;;6224091;28;20496;-55
2022/09/02 10:14:09;;;;;;;3.33;1.80;;;21.30;1.00;;;;;;6253072;28;20386;-55
2022/09/02 10:17:24;;;;;;;3.40;1.80;;;21.40;1.00;;;;;;6252231;28;20502;-56
2022/09/02 10:20:49;;;;;;;1.83;1.83;;;21.40;1.00;;;;;;6249793;28;20428;-54
2022/09/02 10:24:35;;;;;;;1.93;1.93;;;21.10;1.00;;;;;;6251492;28;20235;-55
2022/09/02 10:27:51;;;;;;;1.90;1.80;;;20.90;1.00;;;;;;6238115;28;20231;-56
2022/09/02 10:31:05;;;;;;;2.07;2.00;;;21.00;1.00;;;;;;6245114;28;20303;-55
2022/09/02 10:34:16;;;;;;;2.33;2.23;;;21.00;1.00;;;;;;6246457;28;20230;-55
2022/09/02 10:37:22;;;;;;;1.80;1.80;;;21.10;1.00;;;;;;6250780;28;20732;-55
2022/09/02 10:40:40;;;;;;;1.80;1.80;;;21.10;1.00;;;;;;6243277;28;20383;-56
2022/09/02 10:43:59;;;;;;;2.43;1.90;;;20.90;1.00;;;;;;6250309;28;20646;-54
2022/09/02 10:47:09;;;;;;;1.73;1.73;;;20.90;1.00;;;;;;6259258;28;20816;-55
2022/09/02 10:50:22;;;;;;;1.70;1.70;;;20.90;1.00;;;;;;6255479;28;20238;-54
2022/09/02 10:53:37;;;;;;;2.00;1.80;;;21.00;1.00;;;;;;6254439;28;20222;-54
2022/09/02 10:56:49;;;;;;;2.20;1.97;;;21.00;1.00;;;;;;6254764;28;20288;-55
2022/09/02 11:00:06;;;;;;;2.77;1.80;;;21.20;1.00;;;;;;6252453;28;20261;-55
2022/09/02 11:03:19;;;;;;;4.40;2.10;;;21.30;1.00;;;;;;6244586;28;20321;-56
2022/09/02 11:06:28;;;;;;;2.93;1.77;;;21.40;1.00;;;;;;6252426;28;20321;-55
2022/09/02 11:09:55;;;;;;;2.00;1.90;;;21.50;1.00;;;;;;6250309;28;20242;-54
2022/09/02 11:13:04;;;;;;;1.87;1.87;;;21.40;1.00;;;;;;6252479;28;20705;-55
2022/09/02 11:16:14;;;;;;;1.60;1.60;;;21.30;1.00;;;;;;6255196;28;20257;-55
2022/09/02 11:19:22;;;;;;;1.60;1.60;;;21.20;1.00;;;;;;6255729;28;20296;-55
2022/09/02 11:22:34;;;;;;;1.80;1.80;;;21.20;1.00;;;;;;6251649;28;20246;-55
2022/09/02 11:25:42;;;;;;;2.17;1.80;;;21.10;1.00;;;;;;6253619;28;20276;-54
2022/09/02 11:28:54;;;;;;;2.43;1.77;;;21.30;1.00;;;;;;6255210;28;20555;-54
2022/09/02 11:32:04;;;;;;;3.40;2.00;;;21.40;1.00;;;;;;6255581;28;20273;-55
2022/09/02 11:35:10;;;;;;;3.03;1.70;;;21.50;1.00;;;;;;6245330;28;20552;-57
2022/09/02 11:38:32;;;;;;;1.80;1.70;;;21.80;1.00;;;;;;6257079;28;20321;-55
2022/09/02 11:41:51;;;;;;;2.40;1.90;;;22.10;1.00;;;;;;6243506;28;20381;-54
2022/09/02 11:45:17;;;;;;;1.57;1.57;;;22.30;1.00;;;;;;6246725;28;20250;-55
2022/09/02 11:49:01;;;;;;;3.43;1.57;;;22.20;1.00;;;;;;6251867;28;20239;-56
2022/09/02 11:52:24;;;;;;;1.60;1.40;;;21.90;1.00;;;;;;6250964;28;20230;-55
2022/09/02 11:55:34;;;;;;;1.60;1.60;;;21.90;1.00;;;;;;6253260;28;20754;-54
2022/09/02 11:58:39;;;;;;;1.67;1.67;;;21.90;1.00;;;;;;6250808;28;20241;-54
2022/09/02 12:01:49;;;;;;;1.63;1.63;;;21.80;1.00;;;;;;6247825;28;20246;-54
2022/09/02 12:05:16;;;;;;;2.23;2.13;;;21.70;1.00;;;;;;6249713;28;20231;-55
2022/09/02 12:08:58;;;;;;;1.80;1.80;;;21.70;1.00;;;;;;6247026;28;20528;-55
2022/09/02 12:12:01;;;;;;;2.10;2.00;;;22.00;1.00;;;;;;6248087;28;20829;-55
2022/09/02 12:15:20;;;;;;;1.63;1.63;;;22.00;1.00;;;;;;6255009;28;20726;-55
2022/09/02 12:18:30;;;;;;;1.70;1.70;;;22.00;1.00;;;;;;6256559;28;20230;-55
2022/09/02 12:21:34;;;;;;;1.97;1.97;;;21.80;1.00;;;;;;6248108;28;20400;-54
2022/09/02 12:24:50;;;;;;;2.17;2.10;;;21.70;1.00;;;;;;6258691;28;20234;-55
2022/09/02 12:28:16;;;;;;;2.07;1.93;;;21.60;1.00;;;;;;6254415;28;20317;-55
2022/09/02 12:31:42;;;;;;;1.53;1.53;;;21.60;1.00;;;;;;6247746;28;20408;-55
2022/09/02 12:35:07;;;;;;;1.60;1.60;;;21.80;1.00;;;;;;6254033;28;20242;-54
2022/09/02 12:38:32;;;;;;;1.70;1.67;;;22.00;1.00;;;;;;6250617;28;20468;-54
2022/09/02 12:41:43;;;;;;;2.03;1.73;;;22.20;1.00;;;;;;6229841;28;20248;-54
2022/09/02 12:44:54;;;;;;;1.70;1.60;;;22.40;1.00;;;;;;6254225;28;20241;-56
2022/09/02 12:48:01;;;;;;;2.10;2.00;;;22.80;1.00;;;;;;6246516;28;20231;-56
2022/09/02 12:51:07;;;;;;;2.40;2.20;;;23.00;1.00;;;;;;6249591;28;20237;-54
2022/09/02 12:54:10;;;;;;;4.67;2.00;;;23.20;1.00;;;;;;6251387;28;21012;-54
2022/09/02 12:57:15;;;;;;;1.83;1.73;;;23.10;1.00;;;;;;6256497;28;20368;-55
2022/09/02 13:00:27;;;;;;;1.77;1.77;;;23.20;1.00;;;;;;6253856;28;20328;-54
2022/09/02 13:03:58;;;;;;;1.97;1.97;;;23.40;1.00;;;;;;6258342;28;20325;-55
2022/09/02 13:07:45;;;;;;;1.60;1.60;;;23.80;1.00;;;;;;6254984;28;20233;-55
2022/09/02 13:10:56;;;;;;;1.90;1.80;;;24.10;1.00;;;;;;6255243;28;20234;-56
2022/09/02 13:14:31;;;;;;;1.93;1.83;;;24.20;1.00;;;;;;6250839;28;20473;-55
2022/09/02 13:17:47;;;;;;;1.83;1.80;;;24.20;1.00;;;;;;6249596;28;20253;-54
2022/09/02 13:21:15;;;;;;;1.90;1.90;;;24.00;1.00;;;;;;6249242;28;20262;-56
2022/09/02 13:24:53;;;;;;;1.83;1.83;;;24.00;1.00;;;;;;6220420;28;20238;-54
2022/09/02 13:28:28;;;;;;;1.83;1.83;;;24.00;1.00;;;;;;6225391;28;21708;-56
2022/09/02 13:31:31;;;;;;;2.50;2.50;;;23.90;1.00;;;;;;6230977;28;20250;-54
2022/09/02 13:34:34;;;;;;;2.20;1.80;;;24.00;1.00;;;;;;6239490;28;20294;-54
2022/09/02 13:37:38;;;;;;;1.90;1.90;;;24.00;1.00;;;;;;6245768;28;20238;-55
2022/09/02 13:40:44;;;;;;;1.80;1.77;;;24.00;1.00;;;;;;6248075;28;20534;-54
2022/09/02 13:44:04;;;;;;;2.17;2.07;;;24.10;1.00;;;;;;6229750;28;20235;-54
2022/09/02 13:47:16;;;;;;;2.33;2.17;;;24.30;1.00;;;;;;6242026;28;20345;-54
2022/09/02 13:50:21;;;;;;;2.10;2.07;;;24.30;1.00;;;;;;6222100;28;20282;-54
2022/09/02 13:53:31;;;;;;;2.13;1.87;;;23.90;1.00;;;;;;6238625;28;20628;-54
2022/09/02 13:56:56;;;;;;;2.20;2.10;;;23.60;1.00;;;;;;6255901;28;20238;-55
2022/09/02 14:00:02;;;;;;;2.03;2.00;;;23.40;1.00;;;;;;6255275;28;20462;-56
2022/09/02 14:03:07;;;;;;;2.17;2.07;;;23.20;1.00;;;;;;6241880;28;20253;-55
2022/09/02 14:06:11;;;;;;;2.10;2.10;;;23.10;1.00;;;;;;6253166;28;20241;-55
2022/09/02 14:09:20;;;;;;;2.00;1.90;;;22.90;1.00;;;;;;6257867;28;20249;-55
2022/09/02 14:12:26;;;;;;;1.80;1.73;;;22.80;1.00;;;;;;6257168;28;20395;-56
2022/09/02 14:15:31;;;;;;;1.93;1.87;;;22.80;1.00;;;;;;6254025;28;20650;-56
2022/09/02 14:18:34;;;;;;;2.90;2.43;;;22.70;1.00;;;;;;6256686;28;20244;-56
2022/09/02 14:21:46;;;;;;;1.70;1.70;;;22.70;1.00;;;;;;6256036;28;20302;-56
2022/09/02 14:24:49;;;;;;;1.90;1.90;;;22.80;1.00;;;;;;6255474;28;20683;-56
2022/09/02 14:27:56;;;;;;;1.60;1.60;;;22.90;1.00;;;;;;6266767;28;20534;-56
2022/09/02 14:31:03;;;;;;;1.83;1.80;;;22.90;1.00;;;;;;6250987;28;20225;-54
2022/09/02 14:34:34;;;;;;;1.80;1.70;;;22.90;1.00;;;;;;6251748;28;20245;-54
2022/09/02 14:37:54;;;;;;;1.67;1.67;;;22.60;1.00;;;;;;6256451;28;20230;-56
2022/09/02 14:41:02;;;;;;;2.00;1.90;;;22.50;1.00;;;;;;6248641;28;20263;-55
2022/09/02 14:44:15;;;;;;;3.53;1.90;;;22.20;1.00;;;;;;6254037;28;20241;-54
2022/09/02 14:47:20;;;;;;;2.10;1.90;;;22.20;1.00;;;;;;6247933;28;20245;-55
2022/09/02 14:50:29;;;;;;;1.77;1.77;;;22.20;1.00;;;;;;6253197;28;20246;-55
2022/09/02 14:53:35;;;;;;;2.53;1.50;;;22.40;1.00;;;;;;6263109;28;20461;-54
2022/09/02 14:56:49;;;;;;;1.67;1.67;;;22.50;1.00;;;;;;6265572;28;20847;-58
2022/09/02 14:59:55;;;;;;;1.97;1.87;;;22.50;1.00;;;;;;6252438;28;20374;-55
2022/09/02 15:02:59;;;;;;;1.80;1.70;;;22.40;1.00;;;;;;6246949;28;20255;-56
2022/09/02 15:06:05;;;;;;;1.53;1.53;;;22.30;1.00;;;;;;6252767;28;20230;-54
2022/09/02 15:09:09;;;;;;;1.63;1.60;;;22.10;1.00;;;;;;6246063;28;20738;-54
2022/09/02 15:12:13;;;;;;;1.80;1.80;;;22.10;1.00;;;;;;6246853;28;20372;-55
2022/09/02 15:15:23;;;;;;;1.90;1.80;;;22.00;1.00;;;;;;6254952;28;20242;-56
2022/09/02 15:18:26;;;;;;;4.40;2.10;;;22.10;1.00;;;;;;6258375;28;20253;-55
2022/09/02 15:21:29;;;;;;;2.07;1.90;;;22.20;1.00;;;;;;6249528;28;20375;-55
2022/09/02 15:24:32;;;;;;;1.53;1.53;;;22.20;1.00;;;;;;6254104;28;20234;-60
2022/09/02 15:27:35;;;;;;;2.03;1.93;;;22.30;1.00;;;;;;6250274;28;20234;-56
2022/09/02 15:30:40;;;;;;;3.13;1.60;;;22.50;1.00;;;;;;6250907;28;20384;-55
2022/09/02 15:33:43;;;;;;;2.47;1.70;;;22.50;1.00;;;;;;6255007;28;20288;-56
2022/09/02 15:36:45;;;;;;;1.70;1.70;;;22.40;1.00;;;;;;6260829;28;20233;-55
2022/09/02 15:39:50;;;;;;;1.60;1.30;;;22.20;1.00;;;;;;6257244;28;20242;-55
2022/09/02 15:42:55;;;;;;;1.90;1.40;;;22.10;1.00;;;;;;6256048;28;20284;-56
2022/09/02 15:45:59;;;;;;;1.40;1.40;;;22.00;1.00;;;;;;6260389;28;20516;-56
2022/09/02 15:49:05;;;;;;;2.00;1.90;;;22.00;1.00;;;;;;6249768;28;20240;-55
2022/09/02 15:52:07;;;;;;;1.80;1.70;;;21.90;1.00;;;;;;6254964;28;20328;-55
2022/09/02 15:55:10;;;;;;;1.50;1.50;;;21.90;1.00;;;;;;6259989;28;20652;-56
2022/09/02 15:58:14;;;;;;;1.43;1.43;;;21.80;1.00;;;;;;6252332;28;20712;-55
2022/09/02 16:01:20;;;;;;;3.00;1.70;;;21.80;1.00;;;;;;6246785;28;20241;-54
2022/09/02 16:04:28;;;;;;;3.90;1.90;;;21.70;1.00;;;;;;6260038;28;20338;-54
2022/09/02 16:07:34;;;;;;;1.33;1.33;;;21.60;1.00;;;;;;6258735;28;20268;-54
2022/09/02 16:10:39;;;;;;;1.77;1.67;;;21.60;1.00;;;;;;6248941;28;20242;-55
2022/09/02 16:13:43;;;;;;;1.60;1.60;;;21.50;1.00;;;;;;6249667;28;20231;-54
2022/09/02 16:16:49;;;;;;;3.13;1.60;;;21.40;1.00;;;;;;6255011;28;20280;-55
2022/09/02 16:19:53;;;;;;;1.80;1.50;;;21.30;1.00;;;;;;6253258;28;20767;-56
2022/09/02 16:22:56;;;;;;;1.93;1.77;;;21.10;1.00;;;;;;6250127;28;20480;-55
2022/09/02 16:26:10;;;;;;;2.00;1.60;;;21.00;1.00;;;;;;6255062;28;20238;-53
2022/09/02 16:29:14;;;;;;;1.83;1.73;;;20.90;1.00;;;;;;6250957;28;20230;-54
2022/09/02 16:32:19;;;;;;;1.57;1.57;;;20.80;1.00;;;;;;6252523;28;20739;-54
2022/09/02 16:35:30;;;;;;;1.70;1.70;;;20.60;1.00;;;;;;6254497;28;20308;-55